Time;durP1;ratioP1;P1;durP2;ratioP2;P2;SDS_P1;SDS_P2;PMS_P1;PMS_P2;Temp;Humidity;BMP_temperature;BMP_pressure;BME280_temperature;BME280_humidity;BME280_pressure;Samples;Min_cycle;Max_cycle;Signal;HPM_P1;HPM_P2
2024/01/10 00:00:20;;;;;;;;;;;;;;;-5.30;77.46;103086.53;5035041;28;20385;-68
2024/01/10 00:02:45;;;;;;;;;;;;;;;-5.26;76.87;103079.63;5036033;28;20402;-68
2024/01/10 00:05:10;;;;;;;;;;;;;;;-5.31;77.71;103083.84;5022527;28;19920;-68
2024/01/10 00:07:36;;;;;;;;;;;;;;;-5.36;78.12;103086.38;5030917;28;19962;-68
2024/01/10 00:10:01;;;;;;;;;;;;;;;-5.32;77.77;103085.59;5030914;28;20417;-68
2024/01/10 00:12:27;;;;;;;;;;;;;;;-5.35;77.51;103077.66;5033145;28;19982;-68
2024/01/10 00:14:52;;;;;;;;;;;;;;;-5.29;77.50;103079.53;5032942;28;20004;-68
2024/01/10 00:17:17;;;;;;;;;;;;;;;-5.35;76.88;103074.16;5025940;28;19959;-68
2024/01/10 00:19:42;;;;;;;;;;;;;;;-5.29;77.96;103080.41;5030406;28;20175;-68
2024/01/10 00:22:08;;;;;;;;;;;;;;;-5.38;78.23;103077.59;5030999;28;19975;-68
2024/01/10 00:24:33;;;;;;;;;;;;;;;-5.43;79.45;103071.34;5029829;28;20453;-68
2024/01/10 00:26:58;;;;;;;;;;;;;;;-5.45;78.78;103071.31;5033730;28;19921;-68
2024/01/10 00:29:23;;;;;;;;;;;;;;;-5.48;79.11;103067.72;5028815;28;19931;-68
2024/01/10 00:31:49;;;;;;;;;;;;;;;-5.50;79.88;103056.31;5031821;28;19928;-68
2024/01/10 00:34:14;;;;;;;;;;;;;;;-5.50;79.10;103057.22;5032098;28;19928;-68
2024/01/10 00:36:39;;;;;;;;;;;;;;;-5.50;78.75;103051.09;5031776;28;20312;-68
2024/01/10 00:39:04;;;;;;;;;;;;;;;-5.46;78.78;103052.94;5030185;28;19920;-67
2024/01/10 00:41:29;;;;;;;;;;;;;;;-5.48;78.38;103057.25;5031039;28;20382;-68
2024/01/10 00:43:55;;;;;;;;;;;;;;;-5.50;79.59;103059.84;5031465;28;19934;-67
2024/01/10 00:46:20;;;;;;;;;;;;;;;-5.49;78.96;103053.75;5028355;28;19921;-68
2024/01/10 00:48:46;;;;;;;;;;;;;;;-5.39;79.82;103064.44;5030193;28;19921;-68
2024/01/10 00:51:11;;;;;;;;;;;;;;;-5.49;79.11;103055.47;5033635;28;20029;-68
2024/01/10 00:53:38;;;;;;;;;;;;;;;-5.48;79.75;103052.03;5030324;28;19927;-68
2024/01/10 00:56:03;;;;;;;;;;;;;;;-5.54;79.84;103055.38;5030399;28;20002;-68
2024/01/10 00:58:28;;;;;;;;;;;;;;;-5.49;80.59;103055.47;5029796;28;19929;-68
2024/01/10 01:00:54;;;;;;;;;;;;;;;-5.51;79.84;103052.84;5031403;28;20019;-68
2024/01/10 01:03:19;;;;;;;;;;;;;;;-5.50;80.74;103054.63;5030453;28;19960;-68
2024/01/10 01:05:44;;;;;;;;;;;;;;;-5.59;80.64;103047.41;5033420;28;20271;-68
2024/01/10 01:08:10;;;;;;;;;;;;;;;-5.59;79.98;103046.53;5035082;28;20032;-68
2024/01/10 01:10:35;;;;;;;;;;;;;;;-5.57;80.35;103047.44;5030716;28;19924;-68
2024/01/10 01:13:00;;;;;;;;;;;;;;;-5.59;80.78;103044.81;5037078;28;20401;-68
2024/01/10 01:15:25;;;;;;;;;;;;;;;-5.58;81.87;103053.53;5032845;28;19924;-68
2024/01/10 01:17:51;;;;;;;;;;;;;;;-5.64;80.84;103043.78;5028206;28;20280;-68
2024/01/10 01:20:16;;;;;;;;;;;;;;;-5.60;81.65;103049.97;5033644;28;20479;-67
2024/01/10 01:22:41;;;;;;;;;;;;;;;-5.63;82.95;103052.50;5035800;28;19952;-68
2024/01/10 01:25:06;;;;;;;;;;;;;;;-5.61;82.61;103050.81;5033595;28;20330;-69
2024/01/10 01:27:32;;;;;;;;;;;;;;;-5.69;83.31;103045.41;5033133;28;20409;-68
2024/01/10 01:29:57;;;;;;;;;;;;;;;-5.68;84.42;103052.41;5031211;28;19925;-68
2024/01/10 01:32:22;;;;;;;;;;;;;;;-5.69;84.70;103039.31;5033776;28;20215;-68
2024/01/10 01:34:47;;;;;;;;;;;;;;;-5.79;85.67;103028.59;5034400;28;19956;-69
2024/01/10 01:37:12;;;;;;;;;;;;;;;-5.87;85.42;103037.97;5034311;28;20015;-68
2024/01/10 01:39:38;;;;;;;;;;;;;;;-5.84;86.09;103045.91;5034560;28;19960;-68
2024/01/10 01:42:03;;;;;;;;;;;;;;;-5.82;85.54;103043.31;5035332;28;20012;-68
2024/01/10 01:44:28;;;;;;;;;;;;;;;-5.78;86.06;103042.53;5033736;28;19927;-68
2024/01/10 01:46:54;;;;;;;;;;;;;;;-5.80;87.10;103044.22;5031712;28;20286;-68
2024/01/10 01:49:20;;;;;;;;;;;;;;;-5.79;87.54;103038.16;5031192;28;20295;-68
2024/01/10 01:51:45;;;;;;;;;;;;;;;-5.81;87.61;103037.22;5032819;28;20444;-68
2024/01/10 01:54:11;;;;;;;;;;;;;;;-5.82;88.40;103036.34;5032499;28;20019;-68
2024/01/10 01:56:36;;;;;;;;;;;;;;;-5.89;89.09;103027.47;5030729;28;19921;-68
2024/01/10 01:59:02;;;;;;;;;;;;;;;-5.94;89.92;103023.84;5034402;28;20037;-68
2024/01/10 02:01:27;;;;;;;;;;;;;;;-5.92;89.85;103030.00;5033544;28;19927;-68
2024/01/10 02:03:52;;;;;;;;;;;;;;;-5.97;90.27;103023.75;5030770;28;19932;-68
2024/01/10 02:06:18;;;;;;;;;;;;;;;-5.96;89.95;103025.53;5033910;28;19921;-69
2024/01/10 02:08:43;;;;;;;;;;;;;;;-5.96;90.89;103022.91;5031210;28;20058;-68
2024/01/10 02:11:08;;;;;;;;;;;;;;;-5.98;91.66;103021.97;5032126;28;19929;-68
2024/01/10 02:13:33;;;;;;;;;;;;;;;-5.98;91.89;103026.34;5033919;28;20023;-69
2024/01/10 02:15:59;;;;;;;;;;;;;;;-6.05;90.89;103027.94;5032280;28;19932;-68
2024/01/10 02:18:24;;;;;;;;;;;;;;;-6.01;92.40;103019.31;5033379;28;19932;-68
2024/01/10 02:20:49;;;;;;;;;;;;;;;-5.98;92.57;103013.25;5032871;28;19966;-68
2024/01/10 02:23:14;;;;;;;;;;;;;;;-6.08;93.55;103020.00;5027111;28;19920;-68
2024/01/10 02:25:40;;;;;;;;;;;;;;;-6.05;94.07;103018.38;5034951;28;19925;-68
2024/01/10 02:28:05;;;;;;;;;;;;;;;-6.04;95.11;103016.63;5037254;28;20466;-68
2024/01/10 02:30:30;;;;;;;;;;;;;;;-6.07;94.95;103022.66;5036942;28;19932;-67
2024/01/10 02:32:56;;;;;;;;;;;;;;;-6.06;94.44;103021.81;5035178;28;20355;-68
2024/01/10 02:35:21;;;;;;;;;;;;;;;-6.07;95.28;103012.19;5024082;28;20453;-68
2024/01/10 02:37:46;;;;;;;;;;;;;;;-6.07;95.27;103017.44;5033907;28;20204;-68
2024/01/10 02:40:11;;;;;;;;;;;;;;;-6.03;95.77;103018.38;5033370;28;19967;-68
2024/01/10 02:42:37;;;;;;;;;;;;;;;-5.98;95.14;103019.38;5027601;28;20011;-68
2024/01/10 02:45:03;;;;;;;;;;;;;;;-5.95;94.66;103018.56;5032901;28;19943;-68
2024/01/10 02:47:29;;;;;;;;;;;;;;;-5.90;95.37;103016.94;5034526;28;19927;-68
2024/01/10 02:49:54;;;;;;;;;;;;;;;-5.92;96.07;103023.88;5032029;28;19960;-67
2024/01/10 02:52:19;;;;;;;;;;;;;;;-5.99;95.58;103022.81;5028473;28;20015;-67
2024/01/10 02:54:44;;;;;;;;;;;;;;;-5.99;95.32;103019.34;5037175;28;20012;-68
2024/01/10 02:57:10;;;;;;;;;;;;;;;-5.96;95.60;103024.66;5036858;28;19932;-68
2024/01/10 02:59:35;;;;;;;;;;;;;;;-6.03;96.44;103024.53;5034849;28;20198;-67
2024/01/10 03:02:00;;;;;;;;;;;;;;;-6.04;96.33;103012.28;5037110;28;19928;-68
2024/01/10 03:04:25;;;;;;;;;;;;;;;-6.01;96.75;103016.69;5035348;28;19956;-68
2024/01/10 03:06:51;;;;;;;;;;;;;;;-5.99;96.43;103019.34;5020440;28;20004;-68
2024/01/10 03:09:16;;;;;;;;;;;;;;;-5.97;96.31;103015.03;5033961;28;19924;-68
2024/01/10 03:11:41;;;;;;;;;;;;;;;-6.03;97.38;103021.91;5025938;28;19952;-67
2024/01/10 03:14:10;;;;;;;;;;;;;;;-6.02;97.67;103014.94;5030355;28;19921;-68
2024/01/10 03:16:35;;;;;;;;;;;;;;;-6.05;98.04;103013.13;5030975;28;20411;-68
2024/01/10 03:19:00;;;;;;;;;;;;;;;-6.09;98.70;103011.28;5033007;28;19925;-68
2024/01/10 03:21:26;;;;;;;;;;;;;;;-6.12;99.22;103003.34;5035138;28;19916;-68
2024/01/10 03:23:52;;;;;;;;;;;;;;;-6.14;99.81;103007.66;5036702;28;19920;-67
2024/01/10 03:26:17;;;;;;;;;;;;;;;-6.17;100.00;102989.25;5032205;28;20306;-68
2024/01/10 03:28:42;;;;;;;;;;;;;;;-6.21;100.00;102984.78;5024865;28;19921;-67
2024/01/10 03:31:07;;;;;;;;;;;;;;;-6.26;100.00;102997.75;5036608;28;20042;-67
2024/01/10 03:33:32;;;;;;;;;;;;;;;-6.29;100.00;102988.94;5028710;28;20319;-68
2024/01/10 03:35:58;;;;;;;;;;;;;;;-6.35;100.00;102984.41;5033712;28;19927;-68
2024/01/10 03:38:23;;;;;;;;;;;;;;;-6.31;100.00;102995.84;5033535;28;20034;-67
2024/01/10 03:40:48;;;;;;;;;;;;;;;-6.38;100.00;102995.69;5029600;28;19920;-68
2024/01/10 03:43:13;;;;;;;;;;;;;;;-6.36;100.00;102993.13;5032801;28;19921;-68
2024/01/10 03:45:39;;;;;;;;;;;;;;;-6.34;100.00;102992.31;5034010;28;19921;-68
2024/01/10 03:48:04;;;;;;;;;;;;;;;-6.38;100.00;102989.59;5044410;28;20338;-68
2024/01/10 03:50:29;;;;;;;;;;;;;;;-6.36;100.00;102980.94;5031039;28;20424;-67
2024/01/10 03:52:55;;;;;;;;;;;;;;;-6.33;100.00;102978.41;5035983;28;19927;-68
2024/01/10 03:55:20;;;;;;;;;;;;;;;-6.31;100.00;102975.81;5032373;28;19920;-67
2024/01/10 03:57:45;;;;;;;;;;;;;;;-6.29;100.00;102970.66;5024902;28;19928;-68
2024/01/10 04:00:11;;;;;;;;;;;;;;;-6.32;100.00;102971.44;5038329;28;19921;-68
2024/01/10 04:02:36;;;;;;;;;;;;;;;-6.36;100.00;102969.59;5041363;28;19920;-68
2024/01/10 04:05:02;;;;;;;;;;;;;;;-6.37;100.00;102962.59;5041744;28;19917;-67
2024/01/10 04:07:27;;;;;;;;;;;;;;;-6.38;100.00;102969.53;5018751;28;19924;-68
2024/01/10 04:09:52;;;;;;;;;;;;;;;-6.39;100.00;102973.00;5024558;28;19942;-68
2024/01/10 04:12:17;;;;;;;;;;;;;;;-6.40;100.00;102972.97;5037532;28;20446;-68
2024/01/10 04:14:43;;;;;;;;;;;;;;;-6.41;100.00;102971.19;5040560;28;19921;-68
2024/01/10 04:17:09;;;;;;;;;;;;;;;-6.43;100.00;102965.03;5035225;28;20716;-68
2024/01/10 04:19:34;;;;;;;;;;;;;;;-6.41;100.00;102968.59;5041098;28;20363;-68
2024/01/10 04:21:59;;;;;;;;;;;;;;;-6.40;100.00;102966.00;5041701;28;20023;-68
2024/01/10 04:24:24;;;;;;;;;;;;;;;-6.43;100.00;102970.28;5038304;28;19943;-67
2024/01/10 04:26:50;;;;;;;;;;;;;;;-6.48;100.00;102967.50;5042313;28;20009;-68
2024/01/10 04:29:15;;;;;;;;;;;;;;;-6.47;100.00;102961.44;5039506;28;19927;-68
2024/01/10 04:31:40;;;;;;;;;;;;;;;-6.45;100.00;102957.13;5054854;28;20074;-68
2024/01/10 04:34:06;;;;;;;;;;;;;;;-6.50;100.00;102950.94;5043892;28;20804;-68
2024/01/10 04:36:31;;;;;;;;;;;;;;;-6.61;100.00;102945.38;5042074;28;19921;-68
2024/01/10 04:38:57;;;;;;;;;;;;;;;-6.61;100.00;102947.13;5041849;28;19959;-68
2024/01/10 04:41:22;;;;;;;;;;;;;;;-6.71;100.00;102945.97;5045328;28;19920;-68
2024/01/10 04:43:47;;;;;;;;;;;;;;;-6.70;100.00;102937.31;5044990;28;19917;-68
2024/01/10 04:46:12;;;;;;;;;;;;;;;-6.67;100.00;102934.78;5040268;28;19939;-68
2024/01/10 04:48:37;;;;;;;;;;;;;;;-6.65;100.00;102939.19;5042345;28;19921;-68
2024/01/10 04:51:03;;;;;;;;;;;;;;;-6.56;100.00;102933.31;5045302;28;19924;-68
2024/01/10 04:53:28;;;;;;;;;;;;;;;-6.63;100.00;102937.50;5037679;28;20278;-68
2024/01/10 04:55:53;;;;;;;;;;;;;;;-6.64;100.00;102945.31;5043841;28;20017;-68
2024/01/10 04:58:19;;;;;;;;;;;;;;;-6.60;100.00;102941.91;5039971;28;19917;-68
2024/01/10 05:00:44;;;;;;;;;;;;;;;-6.56;100.00;102950.75;5047817;28;20285;-68
2024/01/10 05:03:09;;;;;;;;;;;;;;;-6.62;100.00;102943.63;5038549;28;19967;-68
2024/01/10 05:05:34;;;;;;;;;;;;;;;-6.56;100.00;102942.91;5029270;28;19963;-68
2024/01/10 05:08:01;;;;;;;;;;;;;;;-6.64;100.00;102953.16;5043469;28;20007;-68
2024/01/10 05:10:26;;;;;;;;;;;;;;;-6.66;100.00;102950.47;5042773;28;19925;-68
2024/01/10 05:12:51;;;;;;;;;;;;;;;-6.64;100.00;102948.81;5035506;28;20416;-68
2024/01/10 05:15:16;;;;;;;;;;;;;;;-6.64;100.00;102951.41;5040759;28;19936;-68
2024/01/10 05:17:42;;;;;;;;;;;;;;;-6.75;100.00;102951.97;5037951;28;19959;-68
2024/01/10 05:20:08;;;;;;;;;;;;;;;-6.66;100.00;102953.09;5037135;28;20007;-68
2024/01/10 05:22:33;;;;;;;;;;;;;;;-6.68;100.00;102951.31;5038363;28;20025;-68
2024/01/10 05:24:59;;;;;;;;;;;;;;;-6.74;100.00;102946.75;5030205;28;19927;-68
2024/01/10 05:27:24;;;;;;;;;;;;;;;-6.70;100.00;102947.75;5037131;28;20402;-68
2024/01/10 05:29:49;;;;;;;;;;;;;;;-6.75;100.00;102945.00;5039248;28;20306;-68
2024/01/10 05:32:14;;;;;;;;;;;;;;;-6.76;100.00;102944.97;5038407;28;19917;-68
2024/01/10 05:34:39;;;;;;;;;;;;;;;-6.76;100.00;102943.25;5031972;28;19925;-68
2024/01/10 05:37:05;;;;;;;;;;;;;;;-6.75;100.00;102946.72;5034967;28;20249;-67
2024/01/10 05:39:30;;;;;;;;;;;;;;;-6.69;100.00;102945.16;5058182;28;20493;-67
2024/01/10 05:41:55;;;;;;;;;;;;;;;-6.72;100.00;102945.09;5039291;28;19921;-68
2024/01/10 05:44:20;;;;;;;;;;;;;;;-6.72;100.00;102936.38;5034321;28;19960;-68
2024/01/10 05:46:46;;;;;;;;;;;;;;;-6.74;100.00;102936.31;5035681;28;20024;-68
2024/01/10 05:49:11;;;;;;;;;;;;;;;-6.82;100.00;102943.94;5038134;28;19920;-67
2024/01/10 05:51:37;;;;;;;;;;;;;;;-6.84;100.00;102940.41;5038075;28;20015;-68
2024/01/10 05:54:04;;;;;;;;;;;;;;;-6.79;100.00;102945.78;5039091;28;19925;-68
2024/01/10 05:56:29;;;;;;;;;;;;;;;-6.81;100.00;102944.84;5035122;28;19959;-67
2024/01/10 05:58:54;;;;;;;;;;;;;;;-6.80;100.00;102947.47;5043156;28;19924;-68
2024/01/10 06:01:20;;;;;;;;;;;;;;;-6.80;100.00;102941.38;5039202;28;19976;-68
2024/01/10 06:03:45;;;;;;;;;;;;;;;-6.68;100.00;102936.50;5037488;28;19928;-68
2024/01/10 06:06:10;;;;;;;;;;;;;;;-6.78;100.00;102934.47;5031188;28;19931;-68
2024/01/10 06:08:35;;;;;;;;;;;;;;;-6.75;100.00;102933.66;5030092;28;19964;-68
2024/01/10 06:11:06;;;;;;;;;;;;;;;-6.75;100.00;102931.94;5031936;28;19971;-68
2024/01/10 06:13:31;;;;;;;;;;;;;;;-6.76;100.00;102932.81;5034956;28;20707;-68
2024/01/10 06:15:56;;;;;;;;;;;;;;;-6.79;100.00;102927.47;5032146;28;19925;-68
2024/01/10 06:18:21;;;;;;;;;;;;;;;-6.83;100.00;102923.88;5036709;28;19948;-68
2024/01/10 06:20:47;;;;;;;;;;;;;;;-6.85;100.00;102941.25;5034976;28;20024;-68
2024/01/10 06:23:12;;;;;;;;;;;;;;;-6.82;100.00;102943.94;5034506;28;19923;-68
2024/01/10 06:25:38;;;;;;;;;;;;;;;-6.81;100.00;102937.00;5031116;28;20291;-68
2024/01/10 06:28:03;;;;;;;;;;;;;;;-6.83;100.00;102936.94;5031185;28;20314;-68
2024/01/10 06:30:28;;;;;;;;;;;;;;;-6.78;100.00;102939.72;5033322;28;20645;-68
2024/01/10 06:32:54;;;;;;;;;;;;;;;-6.71;100.00;102939.00;5037084;28;20434;-68
2024/01/10 06:35:20;;;;;;;;;;;;;;;-6.62;100.00;102935.78;5035519;28;20311;-68
2024/01/10 06:37:45;;;;;;;;;;;;;;;-6.68;100.00;102925.16;5034780;28;20011;-68
2024/01/10 06:40:11;;;;;;;;;;;;;;;-6.60;100.00;102925.38;5036458;28;19944;-68
2024/01/10 06:42:37;;;;;;;;;;;;;;;-6.58;100.00;102931.53;5026556;28;19948;-68
2024/01/10 06:45:03;;;;;;;;;;;;;;;-6.60;100.00;102926.25;5029486;28;19921;-68
2024/01/10 06:47:28;;;;;;;;;;;;;;;-6.57;100.00;102928.06;5036377;28;19968;-68
2024/01/10 06:49:54;;;;;;;;;;;;;;;-6.56;100.00;102938.56;5035229;28;20043;-68
2024/01/10 06:52:19;;;;;;;;;;;;;;;-6.56;100.00;102930.72;5031584;28;19917;-68
2024/01/10 06:54:44;;;;;;;;;;;;;;;-6.56;100.00;102922.00;5031047;28;19921;-68
2024/01/10 06:57:10;;;;;;;;;;;;;;;-6.58;100.00;102935.00;5032210;28;20866;-68
2024/01/10 06:59:35;;;;;;;;;;;;;;;-6.60;100.00;102927.97;5027781;28;19967;-68
2024/01/10 07:02:01;;;;;;;;;;;;;;;-6.60;100.00;102935.81;5033688;28;20055;-68
2024/01/10 07:04:27;;;;;;;;;;;;;;;-6.62;100.00;102930.56;5024303;28;19944;-68
2024/01/10 07:06:53;;;;;;;;;;;;;;;-6.61;100.00;102944.50;5033205;28;19916;-68
2024/01/10 07:09:19;;;;;;;;;;;;;;;-6.59;100.00;102932.38;5031136;28;19982;-68
2024/01/10 07:11:45;;;;;;;;;;;;;;;-6.58;100.00;102936.75;5032898;28;19963;-68
2024/01/10 07:14:10;;;;;;;;;;;;;;;-6.63;100.00;102941.88;5032898;28;20036;-68
2024/01/10 07:16:36;;;;;;;;;;;;;;;-6.65;100.00;102939.19;5031050;28;19929;-68
2024/01/10 07:19:01;;;;;;;;;;;;;;;-6.68;100.00;102938.22;5033100;28;19955;-69
2024/01/10 07:21:26;;;;;;;;;;;;;;;-6.71;100.00;102943.38;5033543;28;20426;-68
2024/01/10 07:23:51;;;;;;;;;;;;;;;-6.71;100.00;102944.25;5021689;28;20008;-68
2024/01/10 07:26:17;;;;;;;;;;;;;;;-6.71;100.00;102941.63;5033513;28;19927;-68
2024/01/10 07:28:42;;;;;;;;;;;;;;;-6.68;100.00;102938.22;5030848;28;20217;-68
2024/01/10 07:31:07;;;;;;;;;;;;;;;-6.68;100.00;102951.31;5033617;28;19964;-68
2024/01/10 07:33:34;;;;;;;;;;;;;;;-6.67;100.00;102961.78;5033220;28;20210;-69
2024/01/10 07:36:00;;;;;;;;;;;;;;;-6.68;100.00;102959.13;5031064;28;20177;-69
2024/01/10 07:38:26;;;;;;;;;;;;;;;-6.68;100.00;102962.63;5027494;28;19940;-68
2024/01/10 07:40:51;;;;;;;;;;;;;;;-6.72;100.00;102959.88;5034019;28;19921;-69
2024/01/10 07:43:16;;;;;;;;;;;;;;;-6.64;100.00;102958.38;5032573;28;19969;-69
2024/01/10 07:45:41;;;;;;;;;;;;;;;-6.60;100.00;102961.97;5033500;28;20032;-68
2024/01/10 07:48:06;;;;;;;;;;;;;;;-6.63;100.00;102962.78;5035298;28;19920;-68
2024/01/10 07:50:32;;;;;;;;;;;;;;;-6.67;100.00;102960.91;5036880;28;19963;-69
2024/01/10 07:52:57;;;;;;;;;;;;;;;-6.64;100.00;102955.78;5032373;28;20008;-69
2024/01/10 07:55:22;;;;;;;;;;;;;;;-6.65;100.00;102960.09;5033023;28;19959;-69
2024/01/10 07:57:48;;;;;;;;;;;;;;;-6.61;100.00;102957.56;5027799;28;20050;-69
2024/01/10 08:00:15;;;;;;;;;;;;;;;-6.61;100.00;102949.72;5015535;28;19966;-69
2024/01/10 08:02:40;;;;;;;;;;;;;;;-6.65;100.00;102949.66;5031911;28;20413;-69
2024/01/10 08:05:08;;;;;;;;;;;;;;;-6.57;100.00;102949.84;5034753;28;19929;-69
2024/01/10 08:07:33;;;;;;;;;;;;;;;-6.46;100.00;102951.88;5031088;28;19936;-69
2024/01/10 08:09:59;;;;;;;;;;;;;;;-6.31;100.00;102936.59;5034189;28;19924;-69
2024/01/10 08:12:24;;;;;;;;;;;;;;;-6.24;100.00;102935.03;5031285;28;19931;-69
2024/01/10 08:14:50;;;;;;;;;;;;;;;-5.97;100.00;102947.91;5027912;28;20149;-69
2024/01/10 08:17:15;;;;;;;;;;;;;;;-5.74;100.00;102939.72;5034278;28;19976;-69
2024/01/10 08:19:40;;;;;;;;;;;;;;;-5.48;100.00;102939.44;5019045;28;20305;-69
2024/01/10 08:22:07;;;;;;;;;;;;;;;-5.36;100.00;102949.31;5032208;28;19944;-69
2024/01/10 08:24:33;;;;;;;;;;;;;;;-5.25;100.00;102937.34;5030314;28;19925;-69
2024/01/10 08:26:58;;;;;;;;;;;;;;;-5.19;100.00;102942.72;5036569;28;19923;-69
2024/01/10 08:29:26;;;;;;;;;;;;;;;-5.01;100.00;102936.09;5026054;28;19924;-69
2024/01/10 08:31:52;;;;;;;;;;;;;;;-4.74;100.00;102945.38;5032577;28;20500;-69
2024/01/10 08:34:18;;;;;;;;;;;;;;;-4.50;100.00;102941.47;5020517;28;20444;-69
2024/01/10 08:36:43;;;;;;;;;;;;;;;-4.20;100.00;102930.63;5036424;28;20066;-69
2024/01/10 08:39:10;;;;;;;;;;;;;;;-3.95;100.00;102933.66;5016035;28;19921;-69
2024/01/10 08:41:37;;;;;;;;;;;;;;;-3.82;100.00;102929.50;5036432;28;20006;-69
2024/01/10 08:44:02;;;;;;;;;;;;;;;-3.74;99.92;102921.78;5023008;28;19916;-69
2024/01/10 08:46:27;;;;;;;;;;;;;;;-3.67;98.77;102918.34;5018245;28;20262;-69
2024/01/10 08:48:53;;;;;;;;;;;;;;;-3.45;97.55;102922.19;5035361;28;20093;-69
2024/01/10 08:51:18;;;;;;;;;;;;;;;-3.29;97.23;102911.88;5015950;28;19933;-69
2024/01/10 08:53:43;;;;;;;;;;;;;;;-3.30;96.31;102916.28;5038535;28;20425;-69
2024/01/10 08:56:09;;;;;;;;;;;;;;;-3.22;96.65;102919.91;5018585;28;19924;-69
2024/01/10 08:58:35;;;;;;;;;;;;;;;-3.28;93.82;102924.16;5038410;28;20083;-69
2024/01/10 09:01:00;;;;;;;;;;;;;;;-3.12;93.74;102923.53;5032883;28;19920;-69
2024/01/10 09:03:25;;;;;;;;;;;;;;;-3.16;94.67;102919.94;5023585;28;20003;-69
2024/01/10 09:05:50;;;;;;;;;;;;;;;-3.25;93.34;102922.47;5032948;28;19983;-70
2024/01/10 09:08:15;;;;;;;;;;;;;;;-3.08;93.68;102927.97;5031657;28;20004;-70
2024/01/10 09:10:41;;;;;;;;;;;;;;;-3.13;93.71;102921.75;5028370;28;19925;-70
2024/01/10 09:13:07;;;;;;;;;;;;;;;-3.40;92.15;102925.78;5033842;28;19991;-70
2024/01/10 09:15:32;;;;;;;;;;;;;;;-3.41;90.68;102923.09;5030677;28;19924;-70
2024/01/10 09:17:57;;;;;;;;;;;;;;;-3.27;91.06;102913.69;5032692;28;19958;-70
2024/01/10 09:20:23;;;;;;;;;;;;;;;-3.14;90.45;102912.09;5035256;28;19932;-70
2024/01/10 09:22:48;;;;;;;;;;;;;;;-3.17;90.25;102917.31;5035955;28;19975;-70
2024/01/10 09:25:14;;;;;;;;;;;;;;;-3.07;90.68;102919.22;5012194;28;20261;-70
2024/01/10 09:27:43;;;;;;;;;;;;;;;-2.99;89.89;102927.19;5036108;28;20020;-70
2024/01/10 09:30:09;;;;;;;;;;;;;;;-3.06;89.29;102927.97;5034396;28;20383;-71
2024/01/10 09:32:35;;;;;;;;;;;;;;;-2.94;88.04;102933.38;5025155;28;20469;-71
2024/01/10 09:35:00;;;;;;;;;;;;;;;-2.85;88.08;102943.13;5038008;28;19921;-71
2024/01/10 09:37:25;;;;;;;;;;;;;;;-2.64;89.53;102947.75;5037687;28;20373;-71
2024/01/10 09:39:50;;;;;;;;;;;;;;;-2.22;87.11;102942.91;5022044;28;19916;-71
2024/01/10 09:42:16;;;;;;;;;;;;;;;-1.61;86.32;102940.78;5032890;28;19956;-71
2024/01/10 09:44:41;;;;;;;;;;;;;;;-1.31;84.13;102936.56;5035950;28;20003;-71
2024/01/10 09:47:07;;;;;;;;;;;;;;;-1.01;82.39;102934.97;5034641;28;19920;-71
2024/01/10 09:49:33;;;;;;;;;;;;;;;-0.53;79.38;102933.38;5038354;28;19999;-71
2024/01/10 09:52:01;;;;;;;;;;;;;;;-0.30;77.18;102935.19;5035889;28;19966;-71
2024/01/10 09:54:27;;;;;;;;;;;;;;;-0.14;75.96;102932.56;5036487;28;20739;-71
2024/01/10 09:56:53;;;;;;;;;;;;;;;0.11;74.92;102933.47;5034710;28;19921;-71
2024/01/10 09:59:18;;;;;;;;;;;;;;;0.34;73.54;102933.41;5033642;28;19921;-71
2024/01/10 10:01:43;;;;;;;;;;;;;;;-0.10;71.45;102927.28;5035378;28;20290;-71
2024/01/10 10:04:09;;;;;;;;;;;;;;;0.30;71.88;102934.31;5038221;28;20298;-71
2024/01/10 10:06:34;;;;;;;;;;;;;;;0.85;70.00;102928.03;5033855;28;19920;-71
2024/01/10 10:09:00;;;;;;;;;;;;;;;1.26;68.72;102928.75;5030601;28;19921;-70
2024/01/10 10:11:25;;;;;;;;;;;;;;;1.60;67.42;102933.81;5030763;28;20314;-70
2024/01/10 10:13:51;;;;;;;;;;;;;;;1.11;64.75;102927.03;5035715;28;19921;-70
2024/01/10 10:16:22;;;;;;;;;;;;;;;1.57;65.57;102927.69;5035350;28;20319;-70
2024/01/10 10:18:47;;;;;;;;;;;;;;;1.73;64.14;102931.09;5035240;28;19920;-70
2024/01/10 10:21:13;;;;;;;;;;;;;;;1.66;63.44;102932.91;5035153;28;19959;-70
2024/01/10 10:23:39;;;;;;;;;;;;;;;1.71;61.81;102930.22;5034506;28;19925;-70
2024/01/10 10:26:09;;;;;;;;;;;;;;;1.67;60.71;102920.53;5037456;28;20308;-70
2024/01/10 10:28:34;;;;;;;;;;;;;;;1.99;61.70;102930.03;5035415;28;19921;-70
2024/01/10 10:31:00;;;;;;;;;;;;;;;2.57;60.91;102919.78;5031410;28;19924;-70
2024/01/10 10:33:25;;;;;;;;;;;;;;;2.94;58.33;102914.91;5034987;28;20054;-70
2024/01/10 10:35:50;;;;;;;;;;;;;;;3.62;57.35;102921.06;5034513;28;20270;-70
2024/01/10 10:38:15;;;;;;;;;;;;;;;3.71;55.34;102912.09;5027216;28;20019;-71
2024/01/10 10:40:41;;;;;;;;;;;;;;;3.92;54.79;102909.97;5035300;28;19924;-70
2024/01/10 10:43:07;;;;;;;;;;;;;;;4.13;52.39;102914.06;5037185;28;19921;-70
2024/01/10 10:45:32;;;;;;;;;;;;;;;4.61;52.69;102899.91;5032799;28;19923;-70
2024/01/10 10:47:58;;;;;;;;;;;;;;;4.27;50.27;102909.38;5037074;28;20303;-70
2024/01/10 10:50:24;;;;;;;;;;;;;;;4.35;50.02;102903.94;5017929;28;19920;-71
2024/01/10 10:52:49;;;;;;;;;;;;;;;5.29;50.63;102902.94;5033772;28;19925;-70
2024/01/10 10:55:16;;;;;;;;;;;;;;;5.40;48.60;102908.88;5031940;28;19927;-71
2024/01/10 10:57:42;;;;;;;;;;;;;;;5.75;47.47;102911.63;5031164;28;19921;-71
2024/01/10 11:00:07;;;;;;;;;;;;;;;5.32;46.95;102905.50;5031678;28;19920;-71
2024/01/10 11:02:32;;;;;;;;;;;;;;;5.91;46.79;102896.13;5030966;28;19921;-71
2024/01/10 11:04:58;;;;;;;;;;;;;;;6.15;46.46;102900.00;5034267;28;19958;-71
2024/01/10 11:07:23;;;;;;;;;;;;;;;5.49;46.22;102899.78;5032541;28;19967;-71
2024/01/10 11:09:48;;;;;;;;;;;;;;;5.81;45.16;102896.38;5021980;28;19923;-71
2024/01/10 11:12:14;;;;;;;;;;;;;;;6.57;44.72;102891.72;5028735;28;19970;-71
2024/01/10 11:14:39;;;;;;;;;;;;;;;6.85;43.96;102895.41;5031694;28;20484;-71
2024/01/10 11:17:23;;;;;;;;;;;;;;;6.75;43.37;102894.81;5033950;28;19925;-71
2024/01/10 11:20:09;;;;;;;;;;;;;;;7.16;42.20;102898.03;5036326;28;19928;-71
2024/01/10 11:22:37;;;;;;;;;;;;;;;6.81;40.64;102899.09;5037151;28;19987;-71
2024/01/10 11:25:03;;;;;;;;;;;;;;;7.45;41.24;102885.56;5037824;28;19917;-71
2024/01/10 11:27:28;;;;;;;;;;;;;;;7.45;40.13;102892.69;5037255;28;19921;-71
2024/01/10 11:29:53;;;;;;;;;;;;;;;6.73;40.16;102894.84;5037406;28;19924;-71
2024/01/10 11:32:22;;;;;;;;;;;;;;;6.91;40.84;102884.53;5033205;28;19929;-71
2024/01/10 11:34:58;;;;;;;;;;;;;;;6.71;40.26;102885.16;5032320;28;19917;-71
2024/01/10 11:37:23;;;;;;;;;;;;;;;6.57;40.01;102880.19;5034761;28;19951;-71
2024/01/10 11:39:50;;;;;;;;;;;;;;;7.40;39.75;102879.50;5033697;28;19928;-71
2024/01/10 11:42:40;;;;;;;;;;;;;;;8.07;39.00;102890.69;5034973;28;20605;-71
2024/01/10 11:45:05;;;;;;;;;;;;;;;7.66;38.70;102888.47;5034666;28;20341;-71
2024/01/10 11:47:31;;;;;;;;;;;;;;;7.58;38.93;102886.06;5032540;28;19930;-71
2024/01/10 11:49:57;;;;;;;;;;;;;;;7.77;38.67;102886.34;5030207;28;19917;-71
2024/01/10 11:52:23;;;;;;;;;;;;;;;7.96;38.53;102883.88;5035265;28;19936;-72
2024/01/10 11:54:48;;;;;;;;;;;;;;;8.34;38.33;102880.81;5036563;28;19927;-71
2024/01/10 11:57:14;;;;;;;;;;;;;;;8.51;37.81;102888.25;5026012;28;20357;-71
2024/01/10 11:59:44;;;;;;;;;;;;;;;8.55;36.80;102891.72;5036541;28;19921;-71
2024/01/10 12:02:09;;;;;;;;;;;;;;;8.38;36.52;102898.50;5017830;28;19927;-71
2024/01/10 12:04:34;;;;;;;;;;;;;;;8.84;36.93;102881.75;5035825;28;19920;-71
2024/01/10 12:07:00;;;;;;;;;;;;;;;9.96;36.96;102890.69;5035279;28;20581;-71
2024/01/10 12:09:25;;;;;;;;;;;;;;;8.83;37.04;102885.34;5034330;28;19924;-71
2024/01/10 12:11:51;;;;;;;;;;;;;;;9.43;36.58;102882.13;5020503;28;19928;-71
2024/01/10 12:14:17;;;;;;;;;;;;;;;8.74;35.65;102891.03;5035958;28;20512;-70
2024/01/10 12:16:42;;;;;;;;;;;;;;;9.47;35.72;102882.88;5034598;28;19921;-70
2024/01/10 12:19:07;;;;;;;;;;;;;;;9.65;35.40;102883.94;5033793;28;19920;-69
2024/01/10 12:21:33;;;;;;;;;;;;;;;10.66;34.42;102893.94;5037078;28;19959;-71
2024/01/10 12:23:58;;;;;;;;;;;;;;;10.70;34.12;102894.66;5035039;28;19966;-71
2024/01/10 12:26:23;;;;;;;;;;;;;;;9.94;33.14;102895.25;5036526;28;19921;-71